createdAt,value
2022-08-28T00:00:12.448Z,102043.03
2022-08-28T00:02:39.460Z,102052.13
2022-08-28T00:05:07.480Z,102049.34
2022-08-28T00:07:34.745Z,102049.22
2022-08-28T00:10:01.218Z,102046.59
2022-08-28T00:12:27.691Z,102045.69
2022-08-28T00:14:54.149Z,102047.53
2022-08-28T00:17:20.512Z,102053.63
2022-08-28T00:19:47.402Z,102052.88
2022-08-28T00:22:13.835Z,102050.44
2022-08-28T00:24:44.572Z,102053.13
2022-08-28T00:27:29.685Z,102047.03
2022-08-28T00:29:56.160Z,102057.00
2022-08-28T00:32:23.506Z,102051.03
2022-08-28T00:34:50.449Z,102049.25
2022-08-28T00:37:17.725Z,102051.88
2022-08-28T00:39:44.341Z,102052.00
2022-08-28T00:42:10.775Z,102046.88
2022-08-28T00:44:37.150Z,102051.25
2022-08-28T00:47:03.864Z,102051.34
2022-08-28T00:49:33.619Z,102051.44
2022-08-28T00:52:15.911Z,102043.13
2022-08-28T00:54:59.095Z,102044.72
2022-08-28T00:57:35.925Z,102051.25
2022-08-28T01:00:06.520Z,102054.88
2022-08-28T01:02:33.218Z,102056.75
2022-08-28T01:04:59.757Z,102048.00
2022-08-28T01:07:26.381Z,102050.56
2022-08-28T01:09:55.099Z,102054.03
2022-08-28T01:12:26.159Z,102053.69
2022-08-28T01:14:59.093Z,102047.66
2022-08-28T01:17:29.009Z,102045.03
2022-08-28T01:20:00.544Z,102045.88
2022-08-28T01:22:54.042Z,102057.47
2022-08-28T01:25:24.888Z,102053.53
2022-08-28T01:27:51.624Z,102053.59
2022-08-28T01:30:21.698Z,102049.00
2022-08-28T01:32:51.722Z,102047.97
2022-08-28T01:35:22.525Z,102056.81
2022-08-28T01:37:49.284Z,102057.84
2022-08-28T01:40:23.627Z,102058.19
2022-08-28T01:42:50.245Z,102058.56
2022-08-28T01:45:20.424Z,102057.03
2022-08-28T01:47:47.596Z,102056.75
2022-08-28T01:50:21.431Z,102055.03
2022-08-28T01:52:47.841Z,102053.59
2022-08-28T01:55:14.345Z,102061.28
2022-08-28T01:57:49.923Z,102059.44
2022-08-28T02:00:18.085Z,102052.41
2022-08-28T02:02:44.602Z,102051.56
2022-08-28T02:05:11.978Z,102057.75
2022-08-28T02:07:38.781Z,102054.34
2022-08-28T02:10:07.737Z,102059.06
2022-08-28T02:12:34.477Z,102058.59
2022-08-28T02:15:00.901Z,102058.31
2022-08-28T02:17:27.558Z,102065.53
2022-08-28T02:19:53.921Z,102065.28
2022-08-28T02:22:20.318Z,102064.38
2022-08-28T02:24:46.757Z,102064.44
2022-08-28T02:27:13.159Z,102067.00
2022-08-28T02:29:39.582Z,102068.78
2022-08-28T02:32:06.188Z,102068.03
2022-08-28T02:34:34.161Z,102072.47
2022-08-28T02:37:00.671Z,102069.41
2022-08-28T02:39:27.314Z,102071.16
2022-08-28T02:41:53.708Z,102068.47
2022-08-28T02:44:20.068Z,102071.53
2022-08-28T02:46:46.479Z,102071.44
2022-08-28T02:49:12.904Z,102078.69
2022-08-28T02:51:39.268Z,102066.44
2022-08-28T02:54:05.716Z,102068.16
2022-08-28T02:56:32.251Z,102070.06
2022-08-28T02:58:58.832Z,102068.28
2022-08-28T03:01:25.402Z,102071.97
2022-08-28T03:03:53.002Z,102066.34
2022-08-28T03:06:19.504Z,102072.59
2022-08-28T03:08:46.003Z,102066.47
2022-08-28T03:11:12.781Z,102068.47
2022-08-28T03:13:39.416Z,102079.19
2022-08-28T03:16:06.506Z,102076.88
2022-08-28T03:18:33.183Z,102076.81
2022-08-28T03:20:59.817Z,102075.09
2022-08-28T03:23:26.238Z,102077.88
2022-08-28T03:26:08.814Z,102077.03
2022-08-28T03:28:55.837Z,102074.03
2022-08-28T03:31:26.942Z,102080.22
2022-08-28T03:33:54.973Z,102080.78
2022-08-28T03:36:25.273Z,102091.97
2022-08-28T03:38:53.339Z,102085.84
2022-08-28T03:41:22.035Z,102082.00
2022-08-28T03:43:48.709Z,102085.69
2022-08-28T03:46:18.854Z,102084.81
2022-08-28T03:48:46.262Z,102085.13
2022-08-28T03:51:19.397Z,102088.56
2022-08-28T03:53:50.375Z,102087.78
2022-08-28T03:56:21.888Z,102091.41
2022-08-28T03:58:51.222Z,102095.88
2022-08-28T04:01:18.443Z,102090.69
2022-08-28T04:03:45.901Z,102094.94
2022-08-28T04:06:12.886Z,102099.44
2022-08-28T04:08:39.626Z,102101.16
2022-08-28T04:11:06.672Z,102104.00
2022-08-28T04:13:33.063Z,102105.75
2022-08-28T04:16:10.820Z,102114.47
2022-08-28T04:18:42.965Z,102108.50
2022-08-28T04:21:12.304Z,102118.13
2022-08-28T04:23:40.687Z,102113.00
2022-08-28T04:26:08.208Z,102114.06
2022-08-28T04:28:35.244Z,102112.59
2022-08-28T04:31:02.113Z,102114.47
2022-08-28T04:33:28.999Z,102124.94
2022-08-28T04:35:56.206Z,102119.97
2022-08-28T04:38:22.742Z,102112.22
2022-08-28T04:40:49.284Z,102118.16
2022-08-28T04:43:15.856Z,102120.97
2022-08-28T04:45:44.368Z,102122.88
2022-08-28T04:48:13.571Z,102123.66
2022-08-28T04:50:46.630Z,102126.22
2022-08-28T04:53:14.989Z,102132.75
2022-08-28T04:55:52.793Z,102129.44
2022-08-28T04:58:24.113Z,102127.66
2022-08-28T05:00:53.092Z,102131.91
2022-08-28T05:03:20.126Z,102142.31
2022-08-28T05:05:49.503Z,102142.94
2022-08-28T05:08:18.152Z,102144.78
2022-08-28T05:10:46.311Z,102144.06
2022-08-28T05:13:15.414Z,102151.00
2022-08-28T05:15:44.583Z,102151.00
2022-08-28T05:18:14.098Z,102151.13
2022-08-28T05:20:44.616Z,102145.78
2022-08-28T05:23:11.802Z,102146.63
2022-08-28T05:25:41.897Z,102149.91
2022-08-28T05:28:12.009Z,102151.53
2022-08-28T05:30:42.001Z,102154.00
2022-08-28T05:33:09.852Z,102146.94
2022-08-28T05:35:38.541Z,102150.34
2022-08-28T05:38:06.366Z,102147.66
2022-08-28T05:43:01.022Z,102153.31
2022-08-28T05:45:27.568Z,102153.28
2022-08-28T05:47:54.045Z,102155.81
2022-08-28T05:50:20.507Z,102157.44
2022-08-28T05:52:47.390Z,102161.69
2022-08-28T05:55:14.138Z,102162.47
2022-08-28T05:57:41.415Z,102159.75
2022-08-28T06:00:13.766Z,102161.31
2022-08-28T06:02:42.054Z,102165.50
2022-08-28T06:05:12.638Z,102164.44
2022-08-28T06:07:40.999Z,102168.47
2022-08-28T06:10:10.639Z,102167.22
2022-08-28T06:12:37.819Z,102174.63
2022-08-28T06:15:05.622Z,102169.59
2022-08-28T06:17:32.097Z,102172.78
2022-08-28T06:19:58.560Z,102167.09
2022-08-28T06:22:24.955Z,102170.25
2022-08-28T06:24:51.470Z,102170.75
2022-08-28T06:27:18.625Z,102177.66
2022-08-28T06:29:46.161Z,102177.41
2022-08-28T06:32:13.255Z,102175.41
2022-08-28T06:34:39.747Z,102174.34
2022-08-28T06:37:06.199Z,102171.50
2022-08-28T06:39:33.034Z,102174.66
2022-08-28T06:41:59.934Z,102178.84
2022-08-28T06:44:27.947Z,102176.88
2022-08-28T06:46:55.531Z,102174.72
2022-08-28T06:49:22.433Z,102177.09
2022-08-28T06:51:49.219Z,102178.41
2022-08-28T06:54:22.369Z,102177.19
2022-08-28T06:56:49.859Z,102178.50
2022-08-28T06:59:16.312Z,102170.88
2022-08-28T07:01:42.754Z,102169.56
2022-08-28T07:04:11.982Z,102175.06
2022-08-28T07:06:41.268Z,102177.03
2022-08-28T07:09:11.114Z,102183.75
2022-08-28T07:11:38.629Z,102187.84
2022-08-28T07:14:06.454Z,102186.56
2022-08-28T07:16:37.949Z,102185.63
2022-08-28T07:19:06.640Z,102188.19
2022-08-28T07:21:38.873Z,102192.03
2022-08-28T07:24:07.712Z,102204.59
2022-08-28T07:26:35.938Z,102203.06
2022-08-28T07:29:10.742Z,102205.09
2022-08-28T07:31:43.493Z,102207.13
2022-08-28T07:34:12.087Z,102200.91
2022-08-28T07:36:39.797Z,102203.38
2022-08-28T07:39:07.825Z,102204.03
2022-08-28T07:41:37.349Z,102209.88
2022-08-28T07:44:22.542Z,102203.91
2022-08-28T07:46:53.741Z,102204.91
2022-08-28T07:49:29.456Z,102201.63
2022-08-28T07:51:56.325Z,102204.94
2022-08-28T07:54:23.950Z,102210.22
2022-08-28T07:56:50.865Z,102202.41
2022-08-28T07:59:19.208Z,102211.38
2022-08-28T08:01:48.358Z,102206.69
2022-08-28T08:04:16.413Z,102214.41
2022-08-28T08:06:44.150Z,102208.38
2022-08-28T08:09:12.868Z,102218.69
2022-08-28T08:11:39.485Z,102220.91
2022-08-28T08:14:07.351Z,102219.13
2022-08-28T08:16:36.262Z,102217.59
2022-08-28T08:19:06.446Z,102227.66
2022-08-28T08:21:32.907Z,102230.06
2022-08-28T08:23:59.356Z,102229.97
2022-08-28T08:26:30.835Z,102226.72
2022-08-28T08:28:57.435Z,102235.88
2022-08-28T08:31:35.213Z,102229.28
2022-08-28T08:34:04.395Z,102226.09
2022-08-28T08:36:33.068Z,102224.41
2022-08-28T08:39:00.834Z,102221.19
2022-08-28T08:41:39.009Z,102219.19
2022-08-28T08:44:20.066Z,102229.06
2022-08-28T08:47:02.776Z,102223.75
2022-08-28T08:49:48.769Z,102219.66
2022-08-28T08:52:24.169Z,102217.28
2022-08-28T08:55:06.171Z,102215.81
2022-08-28T08:57:35.908Z,102207.94
2022-08-28T09:00:11.138Z,102221.13
2022-08-28T09:02:49.898Z,102220.06
2022-08-28T09:05:21.990Z,102207.19
2022-08-28T09:07:57.779Z,102210.56
2022-08-28T09:10:33.265Z,102212.47
2022-08-28T09:13:21.578Z,102209.09
2022-08-28T09:15:50.867Z,102210.22
2022-08-28T09:18:25.809Z,102210.75
2022-08-28T09:20:54.947Z,102219.88
2022-08-28T09:23:23.839Z,102219.53
2022-08-28T09:26:01.779Z,102223.88
2022-08-28T09:28:34.137Z,102223.09
2022-08-28T09:31:08.235Z,102222.81
2022-08-28T09:33:44.875Z,102225.84
2022-08-28T09:36:29.060Z,102222.91
2022-08-28T09:39:24.807Z,102230.22
2022-08-28T09:42:33.048Z,102227.59
2022-08-28T09:45:21.157Z,102221.25
2022-08-28T09:47:58.339Z,102227.16
2022-08-28T09:50:44.574Z,102228.81
2022-08-28T09:53:13.813Z,102219.22
2022-08-28T09:56:11.642Z,102225.78
2022-08-28T09:58:43.071Z,102222.69
2022-08-28T10:01:29.254Z,102218.56
2022-08-28T10:04:15.102Z,102200.28
2022-08-28T10:06:48.401Z,102207.34
2022-08-28T10:09:54.982Z,102214.56
2022-08-28T10:12:44.682Z,102217.00
2022-08-28T10:15:17.674Z,102217.84
2022-08-28T10:17:59.837Z,102216.78
2022-08-28T10:21:03.179Z,102216.47
2022-08-28T10:23:58.519Z,102211.69
2022-08-28T10:26:46.891Z,102210.31
2022-08-28T10:29:45.992Z,102215.06
2022-08-28T10:32:18.346Z,102214.47
2022-08-28T10:34:57.992Z,102213.81
2022-08-28T10:37:42.506Z,102220.91
2022-08-28T10:40:16.337Z,102209.91
2022-08-28T10:42:48.498Z,102225.50
2022-08-28T10:45:22.797Z,102224.22
2022-08-28T10:47:55.446Z,102217.56
2022-08-28T10:50:28.830Z,102222.13
2022-08-28T10:53:03.675Z,102217.91
2022-08-28T10:55:37.462Z,102223.69
2022-08-28T10:58:24.984Z,102229.56
2022-08-28T11:01:01.277Z,102221.13
2022-08-28T11:03:35.569Z,102217.88
2022-08-28T11:06:38.682Z,102224.06
2022-08-28T11:09:25.259Z,102213.09
2022-08-28T11:12:01.063Z,102221.69
2022-08-28T11:14:47.678Z,102220.63
2022-08-28T11:17:30.645Z,102215.44
2022-08-28T11:20:15.413Z,102225.94
2022-08-28T11:22:43.999Z,102219.44
2022-08-28T11:25:26.572Z,102218.25
2022-08-28T11:28:25.379Z,102223.09
2022-08-28T11:31:00.958Z,102227.63
2022-08-28T11:33:33.599Z,102219.31
2022-08-28T11:36:00.531Z,102226.59
2022-08-28T11:38:42.131Z,102231.69
2022-08-28T11:41:21.691Z,102219.31
2022-08-28T11:44:14.756Z,102217.41
2022-08-28T11:46:52.798Z,102223.44
2022-08-28T11:49:34.619Z,102226.66
2022-08-28T11:52:23.505Z,102221.50
2022-08-28T11:55:31.802Z,102212.47
2022-08-28T11:58:16.122Z,102229.00
2022-08-28T12:00:58.021Z,102227.09
2022-08-28T12:03:34.085Z,102224.06
2022-08-28T12:06:01.491Z,102236.09
2022-08-28T12:08:51.400Z,102221.66
2022-08-28T12:11:41.255Z,102220.34
2022-08-28T12:14:33.300Z,102217.75
2022-08-28T12:16:59.813Z,102223.78
2022-08-28T12:19:32.721Z,102226.28
2022-08-28T12:22:05.031Z,102224.25
2022-08-28T12:24:31.611Z,102218.09
2022-08-28T12:26:59.093Z,102221.22
2022-08-28T12:29:49.565Z,102226.72
2022-08-28T12:32:33.144Z,102219.53
2022-08-28T12:34:59.456Z,102216.28
2022-08-28T12:37:52.733Z,102217.00
2022-08-28T12:40:24.928Z,102219.25
2022-08-28T12:42:58.634Z,102217.31
2022-08-28T12:45:51.921Z,102214.09
2022-08-28T12:48:26.650Z,102210.13
2022-08-28T12:50:59.544Z,102215.31
2022-08-28T12:53:27.620Z,102212.16
2022-08-28T12:55:55.740Z,102211.94
2022-08-28T12:58:30.251Z,102203.38
2022-08-28T13:01:06.820Z,102204.31
2022-08-28T13:03:33.785Z,102208.41
2022-08-28T13:06:06.722Z,102215.41
2022-08-28T13:08:34.632Z,102208.06
2022-08-28T13:11:04.636Z,102207.31
2022-08-28T13:13:34.274Z,102207.16
2022-08-28T13:16:07.522Z,102211.41
2022-08-28T13:18:42.143Z,102209.63
2022-08-28T13:21:33.019Z,102202.13
2022-08-28T13:24:26.104Z,102201.19
2022-08-28T13:27:15.948Z,102200.94
2022-08-28T13:30:26.608Z,102209.00
2022-08-28T13:33:01.580Z,102202.75
2022-08-28T13:35:37.482Z,102193.13
2022-08-28T13:38:08.361Z,102196.94
2022-08-28T13:40:59.448Z,102199.06
2022-08-28T13:43:29.914Z,102205.22
2022-08-28T13:45:57.514Z,102208.31
2022-08-28T13:48:26.473Z,102205.66
2022-08-28T13:50:58.906Z,102211.78
2022-08-28T13:53:25.850Z,102205.75
2022-08-28T13:55:52.449Z,102203.63
2022-08-28T13:58:19.540Z,102201.53
2022-08-28T14:00:48.919Z,102204.81
2022-08-28T14:03:34.461Z,102197.59
2022-08-28T14:06:02.970Z,102195.38
2022-08-28T14:08:30.332Z,102200.06
2022-08-28T14:10:59.306Z,102203.22
2022-08-28T14:13:27.662Z,102202.69
2022-08-28T14:15:57.759Z,102199.22
2022-08-28T14:18:25.794Z,102206.63
2022-08-28T14:20:52.955Z,102194.47
2022-08-28T14:23:19.421Z,102195.03
2022-08-28T14:25:47.335Z,102198.44
2022-08-28T14:28:14.862Z,102189.00
2022-08-28T14:30:47.008Z,102198.50
2022-08-28T14:33:16.827Z,102193.09
2022-08-28T14:35:43.465Z,102192.81
2022-08-28T14:38:10.980Z,102195.72
2022-08-28T14:40:54.845Z,102189.91
2022-08-28T14:43:25.033Z,102184.09
2022-08-28T14:46:30.836Z,102200.31
2022-08-28T14:49:09.226Z,102201.84
2022-08-28T14:51:42.915Z,102196.16
2022-08-28T14:54:13.679Z,102198.16
2022-08-28T14:56:41.773Z,102194.09
2022-08-28T14:59:13.562Z,102190.97
2022-08-28T15:01:42.894Z,102194.91
2022-08-28T15:04:15.655Z,102195.06
2022-08-28T15:06:43.619Z,102187.59
2022-08-28T15:09:11.309Z,102193.44
2022-08-28T15:11:39.228Z,102194.91
2022-08-28T15:14:06.547Z,102194.91
2022-08-28T15:16:39.068Z,102199.75
2022-08-28T15:19:06.565Z,102199.63
2022-08-28T15:21:35.779Z,102199.13
2022-08-28T15:24:03.862Z,102193.91
2022-08-28T15:26:31.317Z,102188.63
2022-08-28T15:29:02.344Z,102186.19
2022-08-28T15:31:31.213Z,102187.09
2022-08-28T15:33:57.654Z,102187.81
2022-08-28T15:36:24.101Z,102180.44
2022-08-28T15:39:09.157Z,102180.84
2022-08-28T15:41:37.863Z,102181.69
2022-08-28T15:44:05.117Z,102187.63
2022-08-28T15:46:34.352Z,102181.13
2022-08-28T15:49:03.336Z,102185.34
2022-08-28T15:51:30.299Z,102181.13
2022-08-28T15:53:56.697Z,102175.84
2022-08-28T15:56:23.617Z,102170.38
2022-08-28T15:58:50.802Z,102167.94
2022-08-28T16:01:17.659Z,102189.47
2022-08-28T16:03:44.141Z,102181.53
2022-08-28T16:06:16.413Z,102187.13
2022-08-28T16:08:44.213Z,102189.50
2022-08-28T16:11:14.128Z,102182.03
2022-08-28T16:13:40.769Z,102178.44
2022-08-28T16:16:07.294Z,102174.94
2022-08-28T16:18:33.765Z,102180.72
2022-08-28T16:21:04.680Z,102176.06
2022-08-28T16:23:32.412Z,102179.91
2022-08-28T16:26:00.388Z,102178.78
2022-08-28T16:28:27.213Z,102186.72
2022-08-28T16:30:53.872Z,102184.00
2022-08-28T16:33:22.092Z,102189.09
2022-08-28T16:35:54.872Z,102190.75
2022-08-28T16:38:22.583Z,102190.75
2022-08-28T16:40:49.216Z,102187.81
2022-08-28T16:43:15.928Z,102188.47
2022-08-28T16:45:44.004Z,102191.44
2022-08-28T16:48:12.632Z,102193.25
2022-08-28T16:50:43.879Z,102190.81
2022-08-28T16:53:12.154Z,102191.16
2022-08-28T16:55:40.368Z,102186.94
2022-08-28T16:58:07.110Z,102178.38
2022-08-28T17:00:33.921Z,102179.22
2022-08-28T17:03:11.115Z,102187.50
2022-08-28T17:05:37.515Z,102179.25
2022-08-28T17:08:04.798Z,102182.88
2022-08-28T17:10:31.609Z,102186.94
2022-08-28T17:12:58.144Z,102184.28
2022-08-28T17:15:24.801Z,102181.84
2022-08-28T17:17:51.400Z,102185.13
2022-08-28T17:20:37.381Z,102179.94
2022-08-28T17:23:05.072Z,102184.72
2022-08-28T17:25:32.152Z,102182.91
2022-08-28T17:27:59.424Z,102184.09
2022-08-28T17:30:26.068Z,102183.56
2022-08-28T17:32:53.224Z,102187.97
2022-08-28T17:35:19.854Z,102190.44
2022-08-28T17:37:46.647Z,102191.34
2022-08-28T17:40:16.311Z,102186.41
2022-08-28T17:42:45.511Z,102189.88
2022-08-28T17:45:12.446Z,102190.94
2022-08-28T17:47:38.799Z,102186.63
2022-08-28T17:50:06.004Z,102186.44
2022-08-28T17:52:33.317Z,102189.50
2022-08-28T17:55:00.699Z,102199.56
2022-08-28T17:57:30.359Z,102192.16
2022-08-28T17:59:58.575Z,102195.88
2022-08-28T18:02:26.468Z,102198.41
2022-08-28T18:04:54.085Z,102191.53
2022-08-28T18:07:20.712Z,102196.19
2022-08-28T18:09:50.487Z,102188.69
2022-08-28T18:12:17.540Z,102186.13
2022-08-28T18:14:43.997Z,102182.09
2022-08-28T18:17:15.974Z,102184.66
2022-08-28T18:19:43.279Z,102184.75
2022-08-28T18:22:11.789Z,102188.13
2022-08-28T18:24:39.339Z,102187.50
2022-08-28T18:27:07.607Z,102183.72
2022-08-28T18:29:36.576Z,102181.06
2022-08-28T18:32:05.461Z,102188.34
2022-08-28T18:34:32.136Z,102190.53
2022-08-28T18:36:59.342Z,102188.81
2022-08-28T18:39:29.885Z,102189.97
2022-08-28T18:41:57.913Z,102188.38
2022-08-28T18:44:25.033Z,102189.34
2022-08-28T18:46:51.525Z,102193.91
2022-08-28T18:49:18.176Z,102187.03
2022-08-28T18:51:44.732Z,102202.97
2022-08-28T18:54:14.506Z,102200.50
2022-08-28T18:56:43.090Z,102211.19
2022-08-28T18:59:09.541Z,102201.78
2022-08-28T19:01:39.523Z,102211.59
2022-08-28T19:04:07.367Z,102209.81
2022-08-28T19:06:35.184Z,102217.41
2022-08-28T19:09:01.712Z,102214.41
2022-08-28T19:11:31.018Z,102213.81
2022-08-28T19:13:58.554Z,102219.16
2022-08-28T19:16:25.024Z,102218.44
2022-08-28T19:18:53.496Z,102221.47
2022-08-28T19:21:20.376Z,102229.47
2022-08-28T19:23:55.480Z,102226.28
2022-08-28T19:26:24.536Z,102225.34
2022-08-28T19:28:51.446Z,102226.94
2022-08-28T19:31:18.406Z,102232.72
2022-08-28T19:33:46.664Z,102222.91
2022-08-28T19:36:13.785Z,102233.00
2022-08-28T19:38:41.492Z,102229.41
2022-08-28T19:41:10.158Z,102236.97
2022-08-28T19:43:44.391Z,102234.63
2022-08-28T19:46:19.314Z,102235.03
2022-08-28T19:48:47.742Z,102239.66
2022-08-28T19:51:18.213Z,102239.66
2022-08-28T19:53:57.958Z,102246.31
2022-08-28T19:56:31.331Z,102250.38
2022-08-28T19:59:00.630Z,102254.16
2022-08-28T20:01:30.395Z,102251.78
2022-08-28T20:03:58.664Z,102252.91
2022-08-28T20:06:30.995Z,102260.06
2022-08-28T20:08:57.926Z,102258.78
2022-08-28T20:11:30.303Z,102262.91
2022-08-28T20:13:59.856Z,102262.25
2022-08-28T20:16:28.104Z,102261.41
2022-08-28T20:18:54.992Z,102261.69
2022-08-28T20:21:22.909Z,102262.63
2022-08-28T20:24:04.809Z,102262.06
2022-08-28T20:26:31.216Z,102258.00
2022-08-28T20:28:57.673Z,102261.59
2022-08-28T20:31:24.189Z,102257.09
2022-08-28T20:33:50.818Z,102269.41
2022-08-28T20:36:21.047Z,102270.34
2022-08-28T20:38:47.942Z,102266.69
2022-08-28T20:41:20.679Z,102271.94
2022-08-28T20:43:48.467Z,102279.38
2022-08-28T20:46:19.929Z,102279.09
2022-08-28T20:48:46.701Z,102273.06
2022-08-28T20:51:13.158Z,102281.91
2022-08-28T20:53:40.231Z,102288.59
2022-08-28T20:56:09.377Z,102285.47
2022-08-28T20:58:37.292Z,102292.78
2022-08-28T21:01:04.785Z,102294.00
2022-08-28T21:03:31.336Z,102290.81
2022-08-28T21:05:58.079Z,102290.91
2022-08-28T21:08:24.635Z,102296.84
2022-08-28T21:10:52.153Z,102301.84
2022-08-28T21:13:19.187Z,102299.50
2022-08-28T21:15:45.647Z,102300.59
2022-08-28T21:18:12.093Z,102305.03
2022-08-28T21:20:40.060Z,102309.63
2022-08-28T21:23:07.076Z,102301.72
2022-08-28T21:25:33.615Z,102302.13
2022-08-28T21:28:04.167Z,102296.84
2022-08-28T21:30:31.896Z,102307.41
2022-08-28T21:32:58.537Z,102302.47
2022-08-28T21:35:25.260Z,102307.94
2022-08-28T21:37:52.279Z,102313.22
2022-08-28T21:40:19.488Z,102316.41
2022-08-28T21:42:46.049Z,102314.22
2022-08-28T21:45:12.879Z,102322.22
2022-08-28T21:47:41.146Z,102320.50
2022-08-28T21:50:08.122Z,102318.63
2022-08-28T21:52:34.966Z,102322.13
2022-08-28T21:55:10.714Z,102309.63
2022-08-28T21:57:37.657Z,102304.34
2022-08-28T22:00:11.884Z,102312.63
2022-08-28T22:02:38.881Z,102306.59
2022-08-28T22:05:05.780Z,102307.63
2022-08-28T22:07:32.808Z,102314.94
2022-08-28T22:09:59.262Z,102313.75
2022-08-28T22:12:25.807Z,102311.19
2022-08-28T22:14:52.552Z,102311.19
2022-08-28T22:17:19.098Z,102316.47
2022-08-28T22:19:46.557Z,102318.06
2022-08-28T22:22:32.296Z,102315.69
2022-08-28T22:24:58.686Z,102325.53
2022-08-28T22:27:28.589Z,102319.53
2022-08-28T22:29:55.793Z,102319.97
2022-08-28T22:32:25.633Z,102319.38
2022-08-28T22:34:52.596Z,102315.81
2022-08-28T22:37:19.011Z,102317.69
2022-08-28T22:39:45.533Z,102321.41
2022-08-28T22:42:11.989Z,102317.94
2022-08-28T22:44:38.775Z,102320.66
2022-08-28T22:47:05.990Z,102318.88
2022-08-28T22:49:32.745Z,102317.53
2022-08-28T22:51:59.151Z,102318.03
2022-08-28T22:54:26.337Z,102318.53
2022-08-28T22:56:52.790Z,102315.97
2022-08-28T22:59:19.378Z,102310.91
2022-08-28T23:01:46.111Z,102309.03
2022-08-28T23:04:12.739Z,102306.66
2022-08-28T23:06:40.207Z,102310.91
2022-08-28T23:09:08.384Z,102300.88
2022-08-28T23:11:36.396Z,102293.06
2022-08-28T23:14:04.733Z,102297.66
2022-08-28T23:16:32.740Z,102295.84
2022-08-28T23:19:08.632Z,102297.66
2022-08-28T23:21:36.082Z,102298.66
2022-08-28T23:24:07.506Z,102301.38
2022-08-28T23:26:34.581Z,102295.84
2022-08-28T23:29:02.101Z,102292.38
2022-08-28T23:31:28.806Z,102296.19
2022-08-28T23:33:55.315Z,102297.88
2022-08-28T23:36:22.319Z,102296.56
2022-08-28T23:38:48.876Z,102293.50
2022-08-28T23:41:15.532Z,102283.31
2022-08-28T23:43:42.219Z,102287.16
2022-08-28T23:46:08.802Z,102286.31
2022-08-28T23:48:40.071Z,102287.78
2022-08-28T23:51:10.266Z,102288.72
2022-08-28T23:53:38.823Z,102280.47
2022-08-28T23:56:06.310Z,102286.81
2022-08-28T23:58:33.300Z,102271.13
